Time;durP1;ratioP1;P1;durP2;ratioP2;P2;SDS_P1;SDS_P2;PMS_P1;PMS_P2;Temp;Humidity;BMP_temperature;BMP_pressure;BME280_temperature;BME280_humidity;BME280_pressure;Samples;Min_cycle;Max_cycle;Signal;HPM_P1;HPM_P2
2022/10/18 00:00:22;;;;;;;12.25;7.00;;;;;;;15.42;100.00;102430.38;4754529;30;20102;-53
2022/10/18 00:02:50;;;;;;;12.52;7.00;;;;;;;15.43;100.00;102432.03;4753957;30;20117;-56
2022/10/18 00:05:17;;;;;;;13.38;7.63;;;;;;;15.43;100.00;102437.53;4753139;30;20060;-55
2022/10/18 00:07:45;;;;;;;12.65;7.05;;;;;;;15.43;100.00;102437.53;4753176;30;20056;-56
2022/10/18 00:10:12;;;;;;;11.45;6.95;;;;;;;15.42;100.00;102424.88;4767134;30;20094;-56
2022/10/18 00:12:40;;;;;;;11.07;7.03;;;;;;;15.42;100.00;102422.13;4754672;30;20050;-56
2022/10/18 00:15:09;;;;;;;13.45;7.22;;;;;;;15.42;100.00;102413.91;4753137;30;20049;-58
2022/10/18 00:17:38;;;;;;;13.80;7.43;;;;;;;15.41;100.00;102423.22;4768846;30;20052;-58
2022/10/18 00:20:07;;;;;;;12.88;7.10;;;;;;;15.40;100.00;102422.38;4753393;30;20117;-57
2022/10/18 00:22:36;;;;;;;14.38;7.28;;;;;;;15.40;100.00;102421.56;4757870;30;20087;-56
2022/10/18 00:25:05;;;;;;;10.93;6.75;;;;;;;15.41;100.00;102426.78;4762673;30;20048;-58
2022/10/18 00:27:33;;;;;;;9.70;7.00;;;;;;;15.42;100.00;102419.41;4776412;30;20106;-58
2022/10/18 00:30:01;;;;;;;14.45;7.53;;;;;;;15.41;100.00;102417.72;4775467;30;20041;-54
2022/10/18 00:32:29;;;;;;;11.40;7.00;;;;;;;15.40;100.00;102424.31;4750799;30;20056;-55
2022/10/18 00:34:57;;;;;;;11.13;6.97;;;;;;;15.37;100.00;102425.66;4754504;30;20082;-58
2022/10/18 00:37:24;;;;;;;12.80;6.78;;;;;;;15.37;100.00;102420.19;4763353;30;20048;-56
2022/10/18 00:39:52;;;;;;;11.23;6.70;;;;;;;15.38;100.00;102423.75;4764285;30;20095;-56
2022/10/18 00:42:21;;;;;;;11.65;7.05;;;;;;;15.39;100.00;102423.47;4755780;30;20768;-56
2022/10/18 00:44:49;;;;;;;11.43;6.60;;;;;;;15.41;100.00;102425.97;4752034;30;20056;-58
2022/10/18 00:47:17;;;;;;;10.20;6.53;;;;;;;15.42;100.00;102424.88;4751911;30;20040;-57
2022/10/18 00:49:49;;;;;;;13.77;7.18;;;;;;;15.42;100.00;102416.66;4753521;30;20515;-56
2022/10/18 00:52:42;;;;;;;11.43;7.20;;;;;;;15.41;100.00;102423.22;4752890;30;20041;-57
2022/10/18 00:55:10;;;;;;;10.77;6.70;;;;;;;15.39;100.00;102426.22;4750649;30;20058;-56
2022/10/18 00:57:38;;;;;;;11.13;6.32;;;;;;;15.37;100.00;102425.66;4750690;30;20065;-56
2022/10/18 01:00:08;;;;;;;10.95;6.60;;;;;;;15.37;100.00;102416.56;4752484;30;20052;-56
2022/10/18 01:02:37;;;;;;;10.00;6.78;;;;;;;15.36;100.00;102415.75;4752753;30;20098;-56
2022/10/18 01:05:06;;;;;;;9.02;6.32;;;;;;;15.36;100.00;102423.16;4752143;30;20052;-58
2022/10/18 01:08:06;;;;;;;12.48;6.95;;;;;;;15.36;100.00;102431.41;4766556;30;20060;-58
2022/10/18 01:10:45;;;;;;;13.13;6.65;;;;;;;15.36;100.00;102434.16;4751290;30;20491;-55
2022/10/18 01:13:58;;;;;;;9.35;6.18;;;;;;;15.36;100.00;102436.91;4751670;30;20059;-54
2022/10/18 01:16:28;;;;;;;13.05;7.07;;;;;;;15.36;100.00;102445.16;4740910;30;20129;-57
2022/10/18 01:19:00;;;;;;;12.68;6.82;;;;;;;15.37;100.00;102444.03;4737634;30;20051;-54
2022/10/18 01:21:28;;;;;;;12.55;6.55;;;;;;;15.38;100.00;102445.72;4737189;30;20076;-57
2022/10/18 01:24:13;;;;;;;11.20;6.35;;;;;;;15.38;100.00;102440.22;4750778;30;20048;-58
2022/10/18 01:27:17;;;;;;;10.02;6.40;;;;;;;15.38;100.00;102445.72;4741688;30;20516;-56
2022/10/18 01:29:52;;;;;;;13.95;6.57;;;;;;;15.37;100.00;102438.56;4749204;30;20040;-58
2022/10/18 01:32:26;;;;;;;15.77;6.55;;;;;;;15.36;100.00;102439.66;4745755;30;20052;-55
2022/10/18 01:34:58;;;;;;;11.20;6.60;;;;;;;15.33;100.00;102439.06;4763903;30;20106;-55
2022/10/18 01:37:27;;;;;;;10.73;6.88;;;;;;;15.31;100.00;102441.25;4750772;30;20054;-56
2022/10/18 01:39:57;;;;;;;11.43;6.35;;;;;;;15.32;100.00;102442.06;4752781;30;20135;-55
2022/10/18 01:42:24;;;;;;;13.75;7.35;;;;;;;15.28;100.00;102433.53;4767148;30;20056;-56
2022/10/18 01:44:52;;;;;;;10.32;6.93;;;;;;;15.26;100.00;102440.38;4766539;30;20052;-57
2022/10/18 01:47:21;;;;;;;9.05;6.03;;;;;;;15.25;100.00;102438.72;4750871;30;20053;-56
2022/10/18 01:49:48;;;;;;;10.68;6.50;;;;;;;15.23;100.00;102444.47;4752432;30;20041;-55
2022/10/18 01:52:16;;;;;;;13.77;6.60;;;;;;;15.24;100.00;102439.81;4753982;30;20106;-55
2022/10/18 01:54:47;;;;;;;10.40;6.00;;;;;;;15.23;100.00;102444.47;4746943;30;20413;-56
2022/10/18 01:57:22;;;;;;;12.30;6.40;;;;;;;15.24;100.00;102442.56;4736819;30;20496;-57
2022/10/18 02:00:08;;;;;;;10.88;6.00;;;;;;;15.24;100.00;102443.38;4751724;30;20071;-58
2022/10/18 02:02:46;;;;;;;11.23;6.43;;;;;;;15.24;100.00;102440.63;4765859;30;20040;-54
2022/10/18 02:05:21;;;;;;;10.85;5.72;;;;;;;15.24;100.00;102440.63;4764089;30;20088;-55
2022/10/18 02:08:10;;;;;;;9.32;5.68;;;;;;;15.23;100.00;102439.00;4751064;30;20496;-59
2022/10/18 02:10:52;;;;;;;14.05;6.43;;;;;;;15.23;100.00;102439.00;4740457;30;20048;-56
2022/10/18 02:13:21;;;;;;;9.68;6.25;;;;;;;15.23;100.00;102439.00;4752703;30;20049;-57
2022/10/18 02:15:55;;;;;;;12.57;6.40;;;;;;;15.25;100.00;102442.31;4740613;30;20052;-59
2022/10/18 02:18:30;;;;;;;10.45;6.00;;;;;;;15.26;100.00;102443.97;4765119;30;20083;-52
2022/10/18 02:20:58;;;;;;;8.95;5.70;;;;;;;15.27;100.00;102445.63;4751844;30;20405;-56
2022/10/18 02:23:26;;;;;;;10.93;6.25;;;;;;;15.28;100.00;102441.78;4752481;30;20056;-56
2022/10/18 02:25:54;;;;;;;10.07;5.82;;;;;;;15.29;100.00;102437.09;4750752;30;20049;-55
2022/10/18 02:28:22;;;;;;;10.95;5.80;;;;;;;15.30;100.00;102438.78;4750581;30;20063;-56
2022/10/18 02:31:35;;;;;;;9.05;6.25;;;;;;;15.29;100.00;102437.94;4751357;30;20077;-54
2022/10/18 02:34:29;;;;;;;12.75;5.88;;;;;;;15.28;100.00;102436.28;4722725;30;20424;-54
2022/10/18 02:36:59;;;;;;;11.70;5.97;;;;;;;15.28;100.00;102441.78;4740002;30;20052;-59
2022/10/18 02:39:30;;;;;;;9.57;6.03;;;;;;;15.28;100.00;102441.78;4765345;30;20056;-57
2022/10/18 02:41:58;;;;;;;10.20;6.20;;;;;;;15.28;100.00;102447.28;4749508;30;20086;-55
2022/10/18 02:44:26;;;;;;;12.80;6.20;;;;;;;15.28;100.00;102436.28;4751107;30;20484;-57
2022/10/18 02:46:54;;;;;;;11.77;6.25;;;;;;;15.28;100.00;102435.47;4751147;30;20044;-55
2022/10/18 02:49:21;;;;;;;13.00;6.75;;;;;;;15.27;100.00;102440.13;4751234;30;20048;-58
2022/10/18 02:51:49;;;;;;;9.70;5.80;;;;;;;15.28;100.00;102446.44;4750740;30;20052;-56
2022/10/18 02:54:17;;;;;;;10.85;6.40;;;;;;;15.28;100.00;102450.03;4743125;30;20049;-56
2022/10/18 02:56:44;;;;;;;10.50;6.00;;;;;;;15.29;100.00;102450.84;4748645;30;20055;-55
2022/10/18 02:59:12;;;;;;;8.55;6.10;;;;;;;15.29;100.00;102453.59;4750333;30;20045;-60
2022/10/18 03:01:39;;;;;;;12.50;6.78;;;;;;;15.29;100.00;102459.09;4744466;30;20064;-57
2022/10/18 03:04:07;;;;;;;12.80;6.80;;;;;;;15.28;100.00;102458.25;4751969;30;20079;-56
2022/10/18 03:06:35;;;;;;;12.25;7.32;;;;;;;15.27;100.00;102445.63;4750373;30;20052;-54
2022/10/18 03:09:03;;;;;;;11.90;7.85;;;;;;;15.27;100.00;102453.88;4749576;30;20052;-52
2022/10/18 03:11:31;;;;;;;11.52;7.38;;;;;;;15.27;100.00;102456.63;4750443;30;20508;-57
2022/10/18 03:13:59;;;;;;;14.00;8.25;;;;;;;15.28;100.00;102457.44;4747306;30;20508;-56
2022/10/18 03:16:26;;;;;;;14.70;8.80;;;;;;;15.28;100.00;102452.75;4752079;30;20431;-58
2022/10/18 03:18:54;;;;;;;14.02;8.65;;;;;;;15.28;100.00;102462.94;4754876;30;20063;-55
2022/10/18 03:21:21;;;;;;;12.75;9.18;;;;;;;15.27;100.00;102462.09;4754632;30;20048;-57
2022/10/18 03:23:49;;;;;;;12.82;8.60;;;;;;;15.27;100.00;102461.25;4753428;30;20040;-53
2022/10/18 03:26:17;;;;;;;17.08;9.23;;;;;;;15.26;100.00;102449.44;4768609;30;20060;-57
2022/10/18 03:28:44;;;;;;;14.43;10.13;;;;;;;15.26;100.00;102451.38;4751399;30;20447;-54
2022/10/18 03:31:12;;;;;;;18.52;11.80;;;;;;;15.24;100.00;102451.63;4749750;30;20059;-54
2022/10/18 03:33:40;;;;;;;19.63;11.93;;;;;;;15.24;100.00;102454.38;4752497;30;20048;-57
2022/10/18 03:36:07;;;;;;;22.48;12.40;;;;;;;15.24;100.00;102461.78;4755321;30;20041;-55
2022/10/18 03:38:35;;;;;;;23.83;13.80;;;;;;;15.23;100.00;102455.47;4755204;30;20052;-56
2022/10/18 03:41:02;;;;;;;21.23;13.70;;;;;;;15.22;100.00;102453.78;4753957;30;20488;-57
2022/10/18 03:43:30;;;;;;;25.88;14.57;;;;;;;15.22;100.00;102459.28;4753076;30;20459;-56
2022/10/18 03:45:58;;;;;;;24.52;15.20;;;;;;;15.22;100.00;102459.28;4754908;30;20078;-55
2022/10/18 03:48:25;;;;;;;25.77;15.35;;;;;;;15.21;100.00;102457.63;4754878;30;20055;-53
2022/10/18 03:50:53;;;;;;;26.58;15.35;;;;;;;15.22;100.00;102458.47;4752884;30;20050;-57
2022/10/18 03:53:20;;;;;;;29.13;16.85;;;;;;;15.21;100.00;102454.06;4751696;30;20081;-57
2022/10/18 03:55:55;;;;;;;25.13;15.07;;;;;;;15.21;100.00;102452.16;4752772;30;20048;-57
2022/10/18 03:58:23;;;;;;;20.08;14.68;;;;;;;15.21;100.00;102449.41;4754570;30;20082;-58
2022/10/18 04:00:52;;;;;;;25.70;15.75;;;;;;;15.20;100.00;102450.50;4753483;30;20055;-56
2022/10/18 04:03:21;;;;;;;25.23;15.82;;;;;;;15.19;100.00;102443.34;4751805;30;20048;-57
2022/10/18 04:05:49;;;;;;;21.23;14.63;;;;;;;15.19;100.00;102442.50;4751689;30;20052;-57
2022/10/18 04:08:17;;;;;;;20.48;14.52;;;;;;;15.19;100.00;102437.03;4753120;30;20117;-55
2022/10/18 04:10:45;;;;;;;20.20;13.98;;;;;;;15.17;100.00;102440.00;4752744;30;20389;-56
2022/10/18 04:13:12;;;;;;;21.13;14.43;;;;;;;15.17;100.00;102433.69;4754115;30;20435;-52
2022/10/18 04:15:40;;;;;;;20.50;14.77;;;;;;;15.16;100.00;102446.59;4752039;30;20406;-57
2022/10/18 04:18:08;;;;;;;19.83;13.77;;;;;;;15.17;100.00;102461.16;4768183;30;20048;-55
2022/10/18 04:20:35;;;;;;;18.58;13.85;;;;;;;15.17;100.00;102445.50;4753521;30;20504;-56
2022/10/18 04:23:03;;;;;;;18.95;13.43;;;;;;;15.18;100.00;102440.88;4752863;30;20041;-58
2022/10/18 04:25:30;;;;;;;17.60;13.30;;;;;;;15.16;100.00;102441.13;4753142;30;20036;-56
2022/10/18 04:27:58;;;;;;;17.20;13.02;;;;;;;15.16;100.00;102443.88;4753014;30;20069;-54
2022/10/18 04:30:26;;;;;;;17.70;12.65;;;;;;;15.15;100.00;102453.16;4753892;30;20061;-56
2022/10/18 04:32:53;;;;;;;16.00;12.75;;;;;;;15.13;100.00;102449.88;4754022;30;20056;-56
2022/10/18 04:35:23;;;;;;;15.27;11.85;;;;;;;15.12;100.00;102448.19;4753895;30;20055;-57
2022/10/18 04:37:51;;;;;;;15.27;12.10;;;;;;;15.12;100.00;102459.19;4754813;30;20111;-57
2022/10/18 04:40:19;;;;;;;14.38;12.10;;;;;;;15.12;100.00;102456.44;4768573;30;20550;-57
2022/10/18 04:42:47;;;;;;;16.35;12.63;;;;;;;15.12;100.00;102465.50;4761454;30;20500;-55
2022/10/18 04:45:14;;;;;;;15.18;11.45;;;;;;;15.11;100.00;102454.78;4753632;30;20105;-55
2022/10/18 04:47:42;;;;;;;13.38;11.32;;;;;;;15.11;100.00;102452.06;4754454;30;20048;-58
2022/10/18 04:50:10;;;;;;;16.02;12.18;;;;;;;15.11;100.00;102458.38;4754483;30;20052;-56
2022/10/18 04:52:37;;;;;;;14.68;11.60;;;;;;;15.11;100.00;102457.53;4759252;30;20048;-56
2022/10/18 04:55:05;;;;;;;12.77;10.93;;;;;;;15.10;100.00;102461.34;4761893;30;20083;-55
2022/10/18 04:57:33;;;;;;;15.98;12.00;;;;;;;15.08;100.00;102453.41;4757260;30;20504;-56
2022/10/18 05:00:01;;;;;;;13.15;10.52;;;;;;;15.07;100.00;102448.16;4755845;30;20052;-57
2022/10/18 05:02:28;;;;;;;12.80;11.15;;;;;;;15.05;100.00;102437.41;4753478;30;20040;-54
2022/10/18 05:04:57;;;;;;;13.40;10.68;;;;;;;15.05;100.00;102444.84;4760297;30;20052;-57
2022/10/18 05:07:24;;;;;;;13.27;11.02;;;;;;;15.04;100.00;102456.91;4751758;30;20499;-58
2022/10/18 05:09:52;;;;;;;14.30;11.30;;;;;;;15.03;100.00;102449.75;4753492;30;20117;-57
2022/10/18 05:12:21;;;;;;;12.00;10.48;;;;;;;15.02;100.00;102464.56;4749511;30;20462;-59
2022/10/18 05:14:48;;;;;;;15.45;12.07;;;;;;;15.01;100.00;102466.50;4752036;30;20056;-54
2022/10/18 05:17:16;;;;;;;12.98;10.70;;;;;;;15.01;100.00;102468.38;4753092;30;20052;-55
2022/10/18 05:19:43;;;;;;;14.88;10.70;;;;;;;15.02;100.00;102475.56;4753083;30;20052;-56
2022/10/18 05:22:11;;;;;;;12.40;10.00;;;;;;;15.00;100.00;102484.03;4751540;30;20044;-57
2022/10/18 05:24:38;;;;;;;12.90;11.10;;;;;;;14.99;100.00;102476.91;4752884;30;20041;-56
2022/10/18 05:27:06;;;;;;;15.38;12.27;;;;;;;14.99;100.00;102484.31;4750563;30;20059;-55
2022/10/18 05:29:34;;;;;;;11.55;9.80;;;;;;;14.96;100.00;102484.81;4753073;30;20131;-57
2022/10/18 05:32:02;;;;;;;12.68;10.70;;;;;;;14.92;100.00;102481.75;4744332;30;20052;-52
2022/10/18 05:34:30;;;;;;;11.52;9.90;;;;;;;14.89;100.00;102480.34;4748885;30;20048;-58
2022/10/18 05:36:59;;;;;;;12.02;9.80;;;;;;;14.88;100.00;102481.44;4747217;30;20056;-57
2022/10/18 05:39:26;;;;;;;14.43;10.60;;;;;;;14.87;100.00;102488.00;4746461;30;20075;-56
2022/10/18 05:41:54;;;;;;;17.75;13.02;;;;;;;14.86;100.00;102489.13;4080123;30;10000796;-55
2022/10/18 05:44:22;;;;;;;13.98;11.68;;;;;;;14.85;100.00;102484.69;4740862;30;20077;-56
2022/10/18 05:46:49;;;;;;;11.50;9.68;;;;;;;14.84;100.00;102485.78;4746058;30;20102;-56
2022/10/18 05:49:17;;;;;;;10.55;8.90;;;;;;;14.84;100.00;102482.19;4762463;30;20208;-57
2022/10/18 05:51:45;;;;;;;13.00;9.00;;;;;;;14.83;100.00;102486.84;4746599;30;20055;-55
2022/10/18 05:54:13;;;;;;;10.50;8.73;;;;;;;14.82;100.00;102495.38;4757580;30;20060;-56
2022/10/18 05:56:41;;;;;;;11.15;9.15;;;;;;;14.81;100.00;102497.25;4752877;30;20048;-54
2022/10/18 05:59:10;;;;;;;10.45;8.50;;;;;;;14.79;100.00;102499.44;4749010;30;20133;-54
2022/10/18 06:01:40;;;;;;;9.75;8.10;;;;;;;14.76;100.00;102496.38;4747967;30;20098;-52
2022/10/18 06:04:09;;;;;;;12.18;8.52;;;;;;;14.73;100.00;102499.63;4762790;30;20071;-50
2022/10/18 06:06:37;;;;;;;11.63;8.45;;;;;;;14.69;100.00;102504.78;4749476;30;20063;-51
2022/10/18 06:09:07;;;;;;;11.63;8.18;;;;;;;14.69;100.00;102500.13;4747115;30;20059;-53
2022/10/18 06:11:35;;;;;;;10.07;8.07;;;;;;;14.67;100.00;102504.22;4741951;30;20059;-55
2022/10/18 06:14:04;;;;;;;11.82;8.10;;;;;;;14.67;100.00;102499.56;4746859;30;20052;-51
2022/10/18 06:16:31;;;;;;;10.13;7.75;;;;;;;14.68;100.00;102497.66;4749263;30;20575;-52
2022/10/18 06:18:59;;;;;;;13.55;7.10;;;;;;;14.66;100.00;102508.88;4749432;30;20110;-51
2022/10/18 06:21:27;;;;;;;12.63;7.10;;;;;;;14.64;100.00;102508.28;4747740;30;20114;-51
2022/10/18 06:23:57;;;;;;;9.85;7.85;;;;;;;14.61;100.00;102505.25;4748391;30;20569;-52
2022/10/18 06:26:26;;;;;;;9.55;7.20;;;;;;;14.61;100.00;102513.47;4749769;30;20523;-51
2022/10/18 06:28:53;;;;;;;10.77;7.30;;;;;;;14.62;100.00;102504.13;4745466;30;20493;-49
2022/10/18 06:31:21;;;;;;;12.25;6.55;;;;;;;14.61;100.00;102518.97;4745716;30;20044;-50
2022/10/18 06:33:49;;;;;;;7.90;6.20;;;;;;;14.61;100.00;102518.97;4747688;30;20040;-52
2022/10/18 06:36:20;;;;;;;8.10;5.95;;;;;;;14.61;100.00;102524.44;4733680;30;20074;-51
2022/10/18 06:38:48;;;;;;;9.82;6.20;;;;;;;14.62;100.00;102531.56;4731153;30;20785;-50
2022/10/18 06:41:18;;;;;;;8.88;6.45;;;;;;;14.63;100.00;102538.75;4746866;30;20156;-52
2022/10/18 06:43:56;;;;;;;9.05;6.18;;;;;;;14.62;100.00;102540.66;4761260;30;20578;-54
2022/10/18 06:46:24;;;;;;;10.73;7.00;;;;;;;14.61;100.00;102546.38;4743609;30;20053;-53
2022/10/18 06:48:51;;;;;;;15.75;7.50;;;;;;;14.60;100.00;102544.72;4747967;30;20052;-50
2022/10/18 06:51:19;;;;;;;11.55;7.05;;;;;;;14.58;100.00;102541.41;4751529;30;20086;-51
2022/10/18 06:53:47;;;;;;;9.85;6.95;;;;;;;14.57;100.00;102545.22;4753547;30;20047;-51
2022/10/18 06:56:35;;;;;;;10.82;6.80;;;;;;;14.57;100.00;102553.44;4754689;30;20133;-53
2022/10/18 06:59:03;;;;;;;8.23;5.47;;;;;;;14.55;100.00;102561.97;4769638;30;20102;-47
2022/10/18 07:01:31;;;;;;;11.68;6.10;;;;;;;14.52;100.00;102575.28;4755149;30;20496;-52
2022/10/18 07:03:58;;;;;;;8.43;5.75;;;;;;;14.50;100.00;102567.31;4754894;30;20067;-52
2022/10/18 07:06:26;;;;;;;9.50;5.88;;;;;;;14.52;100.00;102562.41;4751247;30;20062;-47
2022/10/18 07:08:54;;;;;;;8.93;5.80;;;;;;;14.45;100.00;102570.81;4753894;30;20060;-50
2022/10/18 07:11:24;;;;;;;10.23;5.95;;;;;;;14.42;100.00;102576.78;4724777;30;20056;-49
2022/10/18 07:13:55;;;;;;;10.45;6.40;;;;;;;14.40;100.00;102584.44;4754074;30;20049;-49
2022/10/18 07:16:23;;;;;;;11.50;5.97;;;;;;;14.42;100.00;102581.47;4754567;30;20051;-53
2022/10/18 07:18:51;;;;;;;10.60;6.70;;;;;;;14.39;100.00;102582.78;4747539;30;20044;-50
2022/10/18 07:21:20;;;;;;;16.05;6.80;;;;;;;14.45;100.00;102586.44;4753527;30;20044;-49
2022/10/18 07:23:49;;;;;;;10.32;7.15;;;;;;;14.41;100.00;102591.59;4752457;30;20052;-51
2022/10/18 07:26:28;;;;;;;10.80;5.95;;;;;;;14.41;100.00;102594.34;4748664;30;20052;-52
2022/10/18 07:29:00;;;;;;;11.10;6.85;;;;;;;14.39;100.00;102607.47;4754615;30;20052;-50
2022/10/18 07:31:28;;;;;;;17.10;6.68;;;;;;;14.42;100.00;102608.88;4750230;30;20052;-50
2022/10/18 07:33:56;;;;;;;12.70;6.85;;;;;;;14.40;100.00;102605.56;4733121;30;20497;-52
2022/10/18 07:36:24;;;;;;;11.02;7.50;;;;;;;14.41;100.00;102608.06;4747268;30;20042;-52
2022/10/18 07:38:52;;;;;;;17.02;7.80;;;;;;;14.45;100.00;102613.84;4753253;30;20500;-54
2022/10/18 07:41:20;;;;;;;14.15;8.23;;;;;;;14.41;100.00;102619.03;4744866;30;20049;-53
2022/10/18 07:43:49;;;;;;;12.30;7.95;;;;;;;14.38;100.00;102632.41;4751442;30;20797;-50
2022/10/18 07:46:18;;;;;;;14.02;8.93;;;;;;;14.40;100.00;102628.31;4753234;30;20044;-53
2022/10/18 07:48:46;;;;;;;14.43;8.00;;;;;;;14.43;100.00;102632.47;4751607;30;20546;-54
2022/10/18 07:51:14;;;;;;;13.55;8.27;;;;;;;14.41;100.00;102634.66;4749113;30;20044;-51
2022/10/18 07:53:41;;;;;;;15.40;8.85;;;;;;;14.44;100.00;102639.63;4752792;30;20569;-51
2022/10/18 07:56:15;;;;;;;14.27;8.90;;;;;;;14.45;100.00;102642.09;4753547;30;20040;-54
2022/10/18 07:58:51;;;;;;;21.15;9.82;;;;;;;14.43;100.00;102638.81;4753134;30;20386;-51
2022/10/18 08:01:20;;;;;;;17.80;9.02;;;;;;;14.40;100.00;102647.50;4738519;30;20079;-49
2022/10/18 08:03:48;;;;;;;15.70;8.68;;;;;;;14.43;100.00;102660.75;4751341;30;20066;-52
2022/10/18 08:06:17;;;;;;;23.73;10.95;;;;;;;14.42;100.00;102658.25;4754689;30;20058;-53
2022/10/18 08:08:45;;;;;;;17.80;10.48;;;;;;;14.30;100.00;102662.97;4752728;30;20086;-54
2022/10/18 08:11:22;;;;;;;21.88;11.18;;;;;;;14.25;100.00;102663.72;4751959;30;20064;-50
2022/10/18 08:13:50;;;;;;;20.48;10.85;;;;;;;14.25;100.00;102671.94;4752989;30;20045;-48
2022/10/18 08:16:26;;;;;;;20.58;11.30;;;;;;;14.26;100.00;102668.13;4753520;30;20067;-45
2022/10/18 08:18:57;;;;;;;18.38;10.65;;;;;;;14.23;100.00;102671.34;4751565;30;20044;-54
2022/10/18 08:21:25;;;;;;;20.90;11.77;;;;;;;14.25;100.00;102675.50;4751559;30;20044;-52
2022/10/18 08:23:55;;;;;;;27.35;12.15;;;;;;;14.22;100.00;102664.22;4752869;30;20048;-53
2022/10/18 08:26:23;;;;;;;21.92;10.73;;;;;;;14.19;100.00;102670.19;4752337;30;20414;-51
2022/10/18 08:28:51;;;;;;;21.55;10.82;;;;;;;14.22;100.00;102669.72;4752298;30;20051;-50
2022/10/18 08:31:38;;;;;;;20.48;9.82;;;;;;;14.29;100.00;102670.38;4748671;30;20144;-49
2022/10/18 08:34:06;;;;;;;19.30;9.43;;;;;;;14.35;100.00;102674.84;4754179;30;20052;-50
2022/10/18 08:36:33;;;;;;;20.35;9.70;;;;;;;14.36;100.00;102682.03;4766993;30;20052;-50
2022/10/18 08:39:02;;;;;;;21.38;10.13;;;;;;;14.36;100.00;102684.75;4753729;30;20048;-48
2022/10/18 08:41:44;;;;;;;20.23;9.93;;;;;;;14.30;100.00;102685.75;4752025;30;20052;-48
2022/10/18 08:44:17;;;;;;;20.23;10.25;;;;;;;14.37;100.00;102694.66;4754347;30;20388;-51
2022/10/18 08:46:48;;;;;;;18.08;9.63;;;;;;;14.43;100.00;102685.44;4754842;30;20049;-49
2022/10/18 08:49:43;;;;;;;17.00;8.55;;;;;;;14.47;100.00;102678.34;4739036;30;20053;-54
2022/10/18 08:52:52;;;;;;;21.90;8.70;;;;;;;14.55;100.00;102679.91;4744171;30;20492;-52
2022/10/18 08:55:26;;;;;;;16.15;8.23;;;;;;;14.52;100.00;102679.53;4744616;30;20427;-50
2022/10/18 08:57:55;;;;;;;14.32;8.10;;;;;;;14.55;100.00;102690.03;4754611;30;20385;-51
2022/10/18 09:00:24;;;;;;;16.88;8.18;;;;;;;14.48;100.00;102685.53;4753934;30;20106;-51
2022/10/18 09:03:23;;;;;;;19.48;9.13;;;;;;;14.54;100.00;102693.88;4752874;30;20044;-51
2022/10/18 09:06:00;;;;;;;20.33;8.30;;;;;;;14.55;100.00;102693.63;4750917;30;20052;-51
2022/10/18 09:08:46;;;;;;;18.55;7.75;;;;;;;14.55;100.00;102693.63;4754192;30;20056;-50
2022/10/18 09:11:16;;;;;;;17.23;7.55;;;;;;;14.58;100.00;102697.78;4749507;30;20493;-50
2022/10/18 09:14:09;;;;;;;14.38;7.30;;;;;;;14.61;100.00;102697.28;4745466;30;20063;-55
2022/10/18 09:16:49;;;;;;;17.50;8.27;;;;;;;14.57;100.00;102698.84;4751372;30;20048;-53
2022/10/18 09:19:35;;;;;;;15.88;7.95;;;;;;;14.47;100.00;102705.78;4752427;30;20535;-51
2022/10/18 09:22:13;;;;;;;17.27;8.27;;;;;;;14.49;100.00;102702.81;4763264;30;20056;-54
2022/10/18 09:24:51;;;;;;;18.95;8.43;;;;;;;14.37;100.00;102705.63;4753332;30;20132;-55
2022/10/18 09:27:22;;;;;;;18.38;8.50;;;;;;;14.42;100.00;102702.13;4753587;30;20450;-53
2022/10/18 09:30:35;;;;;;;18.30;8.07;;;;;;;14.49;100.00;102706.38;4745988;30;20528;-52
2022/10/18 09:33:23;;;;;;;18.42;8.02;;;;;;;14.55;100.00;102706.47;4678485;30;20104;-52
2022/10/18 09:36:02;;;;;;;16.48;7.35;;;;;;;14.63;100.00;102697.88;4666625;30;20061;-51
2022/10/18 09:38:45;;;;;;;14.32;7.10;;;;;;;14.72;100.00;102701.00;4732425;30;20064;-55
2022/10/18 09:41:16;;;;;;;19.75;8.07;;;;;;;14.75;100.00;102701.34;4750958;30;20044;-55
2022/10/18 09:44:00;;;;;;;14.80;7.45;;;;;;;14.77;100.00;102701.94;4754239;30;20059;-56
2022/10/18 09:46:32;;;;;;;14.70;6.45;;;;;;;14.82;100.00;102693.78;4737297;30;20051;-55
2022/10/18 09:49:20;;;;;;;15.98;7.45;;;;;;;14.87;100.00;102693.03;4730279;30;20416;-48
2022/10/18 09:51:48;;;;;;;15.35;7.32;;;;;;;14.84;100.00;102704.47;4751273;30;20090;-54
2022/10/18 09:54:30;;;;;;;19.02;7.40;;;;;;;14.84;100.00;102704.47;4752031;30;20097;-54
2022/10/18 09:57:09;;;;;;;28.17;11.95;;;;;;;14.85;100.00;102707.00;4736992;30;20062;-52
2022/10/18 09:59:42;;;;;;;18.23;7.28;;;;;;;14.88;100.00;102706.47;4748592;30;20515;-56
2022/10/18 10:02:13;;;;;;;28.35;11.82;;;;;;;14.93;100.00;102713.97;4749584;30;20052;-55
2022/10/18 10:04:41;;;;;;;17.40;7.45;;;;;;;14.97;100.00;102703.31;4751019;30;20554;-54
2022/10/18 10:07:18;;;;;;;21.15;7.43;;;;;;;14.99;100.00;102702.00;4752348;30;20062;-53
2022/10/18 10:10:04;;;;;;;16.42;6.35;;;;;;;15.02;100.00;102701.47;4752339;30;20133;-56
2022/10/18 10:12:36;;;;;;;13.48;5.55;;;;;;;15.04;100.00;102703.97;4743075;30;20063;-53
2022/10/18 10:15:17;;;;;;;19.13;5.97;;;;;;;15.07;100.00;102719.94;4752180;30;20048;-54
2022/10/18 10:18:01;;;;;;;11.00;5.03;;;;;;;15.08;100.00;102718.84;4752248;30;20558;-53
2022/10/18 10:20:35;;;;;;;12.40;4.97;;;;;;;15.11;100.00;102718.38;4747963;30;20052;-50
2022/10/18 10:23:08;;;;;;;21.23;5.20;;;;;;;15.12;100.00;102711.78;4746172;30;20520;-54
2022/10/18 10:25:37;;;;;;;14.07;4.60;;;;;;;15.14;100.00;102712.38;4752305;30;20041;-53
2022/10/18 10:28:14;;;;;;;15.15;4.38;;;;;;;15.17;100.00;102719.25;4755724;30;20462;-54
2022/10/18 10:30:42;;;;;;;11.27;4.22;;;;;;;15.19;100.00;102717.91;4769753;30;20055;-54
2022/10/18 10:33:36;;;;;;;14.68;4.82;;;;;;;15.23;100.00;102721.84;4756172;30;20055;-53
2022/10/18 10:36:08;;;;;;;15.15;4.53;;;;;;;15.29;100.00;102729.03;4756014;30;20056;-54
2022/10/18 10:38:36;;;;;;;14.57;4.75;;;;;;;15.31;100.00;102729.63;4745845;30;20443;-51
2022/10/18 10:41:04;;;;;;;10.32;4.15;;;;;;;15.34;100.00;102737.38;4747843;30;20452;-52
2022/10/18 10:43:33;;;;;;;10.10;4.13;;;;;;;15.36;100.00;102733.53;4754194;30;20507;-49
2022/10/18 10:46:12;;;;;;;17.58;4.75;;;;;;;15.36;100.00;102742.59;4768621;30;20132;-53
2022/10/18 10:49:00;;;;;;;12.45;3.85;;;;;;;15.38;97.56;102737.69;4771247;30;20106;-56
2022/10/18 10:51:54;;;;;;;11.02;3.33;;;;;;;15.41;95.71;102742.66;4766066;30;20056;-55
2022/10/18 10:54:37;;;;;;;11.73;3.35;;;;;;;15.46;94.96;102747.41;4755495;30;20518;-52
2022/10/18 10:57:18;;;;;;;12.15;3.60;;;;;;;15.47;93.34;102752.66;4754725;30;20499;-52
2022/10/18 10:59:48;;;;;;;10.20;3.70;;;;;;;15.51;92.46;102744.72;4754540;30;20052;-56
2022/10/18 11:02:18;;;;;;;12.23;4.03;;;;;;;15.53;90.27;102743.38;4753433;30;20082;-58
2022/10/18 11:04:55;;;;;;;10.23;3.33;;;;;;;15.54;91.60;102739.56;4755484;30;20116;-54
2022/10/18 11:07:43;;;;;;;37.60;10.57;;;;;;;15.61;94.29;102744.03;4739974;30;20048;-56
2022/10/18 11:10:12;;;;;;;14.82;4.57;;;;;;;15.62;94.46;102749.28;4748538;30;20114;-50
2022/10/18 11:12:44;;;;;;;17.13;4.15;;;;;;;15.63;93.99;102739.94;4752092;30;20047;-57
2022/10/18 11:15:35;;;;;;;11.65;3.65;;;;;;;15.64;94.86;102736.13;4769862;30;20063;-53
2022/10/18 11:18:16;;;;;;;12.68;3.63;;;;;;;15.66;93.38;102739.44;4768882;30;20428;-51
2022/10/18 11:20:46;;;;;;;18.13;4.68;;;;;;;15.67;92.14;102745.78;4755261;30;20044;-52
2022/10/18 11:23:16;;;;;;;12.25;3.25;;;;;;;15.66;88.97;102750.44;4754945;30;20044;-52
2022/10/18 11:26:06;;;;;;;15.10;4.45;;;;;;;15.67;90.01;102746.59;4769586;30;20060;-53
2022/10/18 11:28:52;;;;;;;13.55;3.30;;;;;;;15.69;90.76;102735.34;4767990;30;20048;-55
2022/10/18 11:31:44;;;;;;;11.38;2.88;;;;;;;15.71;88.67;102742.28;4752465;30;20084;-55